createdAt,value
2023-09-23T00:00:07.814Z,1.05
2023-09-23T00:02:41.598Z,1.80
2023-09-23T00:05:10.779Z,1.67
2023-09-23T00:07:37.682Z,1.38
2023-09-23T00:10:09.660Z,1.30
2023-09-23T00:12:41.769Z,1.50
2023-09-23T00:15:11.914Z,1.27
2023-09-23T00:17:39.403Z,1.13
2023-09-23T00:20:16.303Z,2.17
2023-09-23T00:22:47.213Z,1.30
2023-09-23T00:25:20.631Z,1.50
2023-09-23T00:27:47.552Z,1.17
2023-09-23T00:30:14.832Z,1.70
2023-09-23T00:32:43.540Z,1.40
2023-09-23T00:35:13.349Z,1.53
2023-09-23T00:37:41.800Z,1.60
2023-09-23T00:40:18.738Z,1.33
2023-09-23T00:42:49.079Z,1.40
2023-09-23T00:45:17.841Z,1.65
2023-09-23T00:47:46.925Z,1.90
2023-09-23T00:50:20.915Z,1.03
2023-09-23T00:52:53.557Z,1.40
2023-09-23T00:55:21.523Z,0.88
2023-09-23T00:57:48.495Z,1.40
2023-09-23T01:00:16.730Z,1.50
2023-09-23T01:02:43.709Z,1.20
2023-09-23T01:05:10.629Z,1.40
2023-09-23T01:07:39.712Z,2.17
2023-09-23T01:10:06.932Z,1.25
2023-09-23T01:12:33.678Z,1.17
2023-09-23T01:15:00.916Z,1.08
2023-09-23T01:17:27.719Z,1.03
2023-09-23T01:19:56.167Z,1.08
2023-09-23T01:22:25.016Z,1.07
2023-09-23T01:24:51.784Z,1.20
2023-09-23T01:27:19.598Z,1.27
2023-09-23T01:29:53.511Z,1.30
2023-09-23T01:32:30.269Z,1.20
2023-09-23T01:34:57.177Z,1.23
2023-09-23T01:37:24.414Z,2.03
2023-09-23T01:39:51.132Z,1.20
2023-09-23T01:42:19.487Z,1.30
2023-09-23T01:44:46.620Z,1.10
2023-09-23T01:47:13.396Z,1.30
2023-09-23T01:49:40.681Z,1.08
2023-09-23T01:52:08.723Z,1.53
2023-09-23T01:54:35.843Z,1.30
2023-09-23T01:57:04.200Z,1.75
2023-09-23T01:59:30.977Z,0.90
2023-09-23T02:01:57.875Z,0.90
2023-09-23T02:04:24.708Z,1.15
2023-09-23T02:06:52.925Z,1.17
2023-09-23T02:09:19.687Z,1.02
2023-09-23T02:11:46.448Z,1.10
2023-09-23T02:14:13.386Z,1.45
2023-09-23T02:16:40.743Z,0.95
2023-09-23T02:19:07.792Z,1.67
2023-09-23T02:21:35.246Z,1.77
2023-09-23T02:24:02.037Z,1.60
2023-09-23T02:26:28.780Z,1.30
2023-09-23T02:28:55.595Z,1.08
2023-09-23T02:31:22.397Z,1.40
2023-09-23T02:33:49.345Z,1.50
2023-09-23T02:36:16.465Z,1.03
2023-09-23T02:38:46.199Z,0.90
2023-09-23T02:41:14.100Z,1.37
2023-09-23T02:43:41.532Z,1.13
2023-09-23T02:46:08.907Z,0.75
2023-09-23T02:48:35.721Z,0.90
2023-09-23T02:51:04.999Z,1.23
2023-09-23T02:53:32.153Z,1.33
2023-09-23T02:56:09.475Z,0.90
2023-09-23T02:58:36.575Z,1.13
2023-09-23T03:01:06.273Z,1.10
2023-09-23T03:03:35.249Z,1.20
2023-09-23T03:06:05.088Z,1.27
2023-09-23T03:08:32.043Z,1.43
2023-09-23T03:11:04.166Z,1.03
2023-09-23T03:13:31.445Z,2.00
2023-09-23T03:16:11.409Z,0.98
2023-09-23T03:18:46.085Z,0.90
2023-09-23T03:21:13.189Z,1.30
2023-09-23T03:23:41.536Z,0.90
2023-09-23T03:26:16.917Z,1.40
2023-09-23T03:28:43.994Z,1.00
2023-09-23T03:31:11.097Z,1.10
2023-09-23T03:33:46.356Z,1.03
2023-09-23T03:36:17.340Z,1.60
2023-09-23T03:38:44.561Z,1.13
2023-09-23T03:41:13.208Z,1.07
2023-09-23T03:43:41.662Z,1.42
2023-09-23T03:46:13.099Z,1.70
2023-09-23T03:48:39.949Z,1.47
2023-09-23T03:51:10.862Z,1.40
2023-09-23T03:53:38.140Z,1.03
2023-09-23T03:56:06.921Z,1.27
2023-09-23T03:58:33.844Z,1.27
2023-09-23T04:01:14.704Z,2.20
2023-09-23T04:03:41.856Z,2.10
2023-09-23T04:06:08.652Z,1.03
2023-09-23T04:08:35.636Z,1.38
2023-09-23T04:11:06.704Z,1.00
2023-09-23T04:13:33.719Z,1.37
2023-09-23T04:16:01.953Z,1.73
2023-09-23T04:18:29.985Z,0.80
2023-09-23T04:20:56.865Z,1.60
2023-09-23T04:23:23.701Z,1.10
2023-09-23T04:25:53.857Z,1.90
2023-09-23T04:28:20.777Z,1.50
2023-09-23T04:30:47.819Z,1.10
2023-09-23T04:33:14.873Z,1.30
2023-09-23T04:35:41.730Z,1.57
2023-09-23T04:38:08.513Z,1.73
2023-09-23T04:40:35.290Z,1.13
2023-09-23T04:43:05.220Z,1.50
2023-09-23T04:45:31.994Z,1.30
2023-09-23T04:47:58.798Z,1.23
2023-09-23T04:50:26.308Z,1.40
2023-09-23T04:52:53.231Z,1.50
2023-09-23T04:55:20.687Z,1.20
2023-09-23T04:57:47.448Z,1.00
2023-09-23T05:00:20.402Z,0.90
2023-09-23T05:02:50.624Z,1.40
2023-09-23T05:05:18.846Z,1.40
2023-09-23T05:07:46.256Z,1.57
2023-09-23T05:10:14.128Z,1.23
2023-09-23T05:12:41.404Z,1.33
2023-09-23T05:15:11.455Z,1.30
2023-09-23T05:17:38.798Z,1.80
2023-09-23T05:20:13.396Z,1.00
2023-09-23T05:22:41.192Z,1.17
2023-09-23T05:25:08.896Z,1.33
2023-09-23T05:27:35.675Z,1.20
2023-09-23T05:30:02.408Z,1.30
2023-09-23T05:32:29.303Z,1.40
2023-09-23T05:34:56.191Z,1.30
2023-09-23T05:37:23.500Z,1.30
2023-09-23T05:39:50.233Z,1.70
2023-09-23T05:42:19.393Z,1.40
2023-09-23T05:44:47.904Z,2.03
2023-09-23T05:47:14.752Z,1.23
2023-09-23T05:49:44.645Z,1.40
2023-09-23T05:52:15.854Z,1.37
2023-09-23T05:54:43.300Z,1.00
2023-09-23T05:57:10.358Z,1.75
2023-09-23T05:59:37.196Z,0.90
2023-09-23T06:02:07.643Z,1.30
2023-09-23T06:04:34.426Z,1.50
2023-09-23T06:07:01.191Z,1.20
2023-09-23T06:09:27.956Z,1.83
2023-09-23T06:11:55.971Z,1.43
2023-09-23T06:14:22.857Z,1.57
2023-09-23T06:16:50.290Z,1.27
2023-09-23T06:19:17.346Z,1.17
2023-09-23T06:21:44.072Z,1.80
2023-09-23T06:24:11.926Z,1.20
2023-09-23T06:26:41.627Z,1.23
2023-09-23T06:29:10.367Z,1.20
2023-09-23T06:31:37.240Z,1.10
2023-09-23T06:34:04.574Z,1.60
2023-09-23T06:36:31.327Z,1.60
2023-09-23T06:38:58.217Z,1.30
2023-09-23T06:41:25.074Z,1.77
2023-09-23T06:43:53.262Z,1.50
2023-09-23T06:46:20.361Z,1.10
2023-09-23T06:48:47.177Z,1.48
2023-09-23T06:51:13.927Z,1.37
2023-09-23T06:53:43.413Z,1.33
2023-09-23T06:56:10.909Z,0.83
2023-09-23T06:58:37.859Z,1.38
2023-09-23T07:01:04.632Z,1.58
2023-09-23T07:03:31.562Z,1.20
2023-09-23T07:05:58.499Z,1.42
2023-09-23T07:08:25.290Z,1.20
2023-09-23T07:10:52.369Z,1.77
2023-09-23T07:13:19.154Z,1.63
2023-09-23T07:15:46.137Z,1.30
2023-09-23T07:18:15.094Z,2.43
2023-09-23T07:20:42.106Z,1.80
2023-09-23T07:23:08.870Z,1.48
2023-09-23T07:25:41.362Z,1.40
2023-09-23T07:28:08.866Z,1.43
2023-09-23T07:30:36.970Z,1.47
2023-09-23T07:33:04.141Z,1.77
2023-09-23T07:35:32.832Z,1.55
2023-09-23T07:38:03.319Z,1.45
2023-09-23T07:40:31.429Z,2.40
2023-09-23T07:42:59.081Z,1.52
2023-09-23T07:45:26.166Z,1.97
2023-09-23T07:47:52.929Z,1.92
2023-09-23T07:50:19.832Z,1.80
2023-09-23T07:52:46.614Z,1.30
2023-09-23T07:55:13.354Z,1.70
2023-09-23T07:57:40.067Z,1.33
2023-09-23T08:00:10.779Z,1.40
2023-09-23T08:02:40.269Z,2.10
2023-09-23T08:05:07.905Z,2.05
2023-09-23T08:07:34.804Z,1.55
2023-09-23T08:10:03.213Z,1.52
2023-09-23T08:12:30.010Z,1.77
2023-09-23T08:14:57.017Z,1.83
2023-09-23T08:17:23.866Z,1.75
2023-09-23T08:19:52.274Z,2.25
2023-09-23T08:22:19.372Z,1.50
2023-09-23T08:24:46.131Z,2.03
2023-09-23T08:27:12.895Z,1.50
2023-09-23T08:29:39.641Z,1.65
2023-09-23T08:32:07.308Z,2.13
2023-09-23T08:34:34.118Z,1.60
2023-09-23T08:37:02.043Z,2.20
2023-09-23T08:39:29.057Z,2.22
2023-09-23T08:41:58.093Z,1.52
2023-09-23T08:44:26.293Z,2.40
2023-09-23T08:46:53.998Z,1.95
2023-09-23T08:49:25.973Z,1.92
2023-09-23T08:51:57.019Z,1.63
2023-09-23T08:54:28.736Z,2.00
2023-09-23T08:56:56.060Z,1.75
2023-09-23T08:59:23.245Z,1.50
2023-09-23T09:01:50.262Z,1.88
2023-09-23T09:04:17.074Z,1.83
2023-09-23T09:06:51.822Z,2.28
2023-09-23T09:09:18.716Z,1.90
2023-09-23T09:11:50.043Z,2.28
2023-09-23T09:14:17.884Z,1.95
2023-09-23T09:16:45.064Z,1.38
2023-09-23T09:19:11.982Z,2.38
2023-09-23T09:21:38.920Z,1.77
2023-09-23T09:24:06.020Z,2.65
2023-09-23T09:26:33.374Z,2.60
2023-09-23T09:29:00.386Z,2.30
2023-09-23T09:31:34.110Z,2.60
2023-09-23T09:34:06.529Z,2.33
2023-09-23T09:36:36.744Z,2.25
2023-09-23T09:39:05.868Z,2.88
2023-09-23T09:41:42.373Z,2.38
2023-09-23T09:44:10.037Z,2.58
2023-09-23T09:46:39.683Z,2.50
2023-09-23T09:49:08.304Z,2.22
2023-09-23T09:51:37.145Z,2.33
2023-09-23T09:54:05.406Z,2.55
2023-09-23T09:56:34.508Z,2.72
2023-09-23T09:59:04.998Z,2.75
2023-09-23T10:01:32.113Z,2.58
2023-09-23T10:04:00.364Z,2.30
2023-09-23T10:06:27.760Z,2.65
2023-09-23T10:08:55.123Z,2.00
2023-09-23T10:11:35.931Z,2.65
2023-09-23T10:14:18.031Z,2.80
2023-09-23T10:17:03.650Z,2.80
2023-09-23T10:19:31.266Z,2.90
2023-09-23T10:22:10.196Z,2.83
2023-09-23T10:24:37.055Z,3.90
2023-09-23T10:27:07.036Z,2.20
2023-09-23T10:29:48.395Z,2.08
2023-09-23T10:32:16.589Z,2.42
2023-09-23T10:34:51.110Z,3.03
2023-09-23T10:37:34.214Z,2.97
2023-09-23T10:40:07.451Z,2.72
2023-09-23T10:42:35.623Z,2.55
2023-09-23T10:45:02.582Z,2.97
2023-09-23T10:47:29.814Z,2.33
2023-09-23T10:49:56.708Z,2.70
2023-09-23T10:52:23.541Z,2.50
2023-09-23T10:54:50.524Z,2.92
2023-09-23T10:57:17.273Z,2.60
2023-09-23T10:59:47.153Z,2.17
2023-09-23T11:02:14.624Z,2.45
2023-09-23T11:04:49.969Z,2.50
2023-09-23T11:07:18.019Z,2.55
2023-09-23T11:09:46.795Z,2.20
2023-09-23T11:12:16.406Z,2.63
2023-09-23T11:14:44.628Z,2.80
2023-09-23T11:17:21.857Z,2.67
2023-09-23T11:20:00.015Z,2.15
2023-09-23T11:22:27.783Z,2.33
2023-09-23T11:24:55.944Z,2.55
2023-09-23T11:27:23.934Z,2.58
2023-09-23T11:29:51.043Z,2.53
2023-09-23T11:32:25.195Z,2.35
2023-09-23T11:34:53.355Z,2.75
2023-09-23T11:37:24.409Z,2.58
2023-09-23T11:39:51.336Z,2.75
2023-09-23T11:42:18.152Z,2.55
2023-09-23T11:44:45.857Z,2.67
2023-09-23T11:47:12.793Z,2.90
2023-09-23T11:49:39.682Z,3.38
2023-09-23T11:52:13.448Z,2.33
2023-09-23T11:54:41.831Z,2.83
2023-09-23T11:57:09.766Z,2.70
2023-09-23T11:59:37.340Z,2.38
2023-09-23T12:02:04.284Z,3.00
2023-09-23T12:04:32.140Z,2.67
2023-09-23T12:06:59.213Z,2.28
2023-09-23T12:09:26.028Z,2.10
2023-09-23T12:11:52.966Z,1.80
2023-09-23T12:14:22.385Z,2.20
2023-09-23T12:16:49.125Z,2.45
2023-09-23T12:19:15.948Z,2.20
2023-09-23T12:21:43.790Z,2.20
2023-09-23T12:24:10.804Z,2.30
2023-09-23T12:26:37.658Z,2.38
2023-09-23T12:29:04.495Z,2.60
2023-09-23T12:31:31.314Z,2.60
2023-09-23T12:33:58.298Z,2.75
2023-09-23T12:36:26.190Z,2.47
2023-09-23T12:38:55.822Z,2.78
2023-09-23T12:41:22.835Z,2.50
2023-09-23T12:43:49.703Z,2.55
2023-09-23T12:46:16.569Z,2.35
2023-09-23T12:48:45.236Z,2.75
2023-09-23T12:51:14.028Z,2.58
2023-09-23T12:53:41.347Z,2.30
2023-09-23T12:56:09.641Z,2.80
2023-09-23T12:58:36.675Z,2.90
2023-09-23T13:01:03.807Z,2.25
2023-09-23T13:03:30.984Z,2.28
2023-09-23T13:05:58.095Z,2.53
2023-09-23T13:08:25.110Z,2.53
2023-09-23T13:10:53.007Z,2.05
2023-09-23T13:13:19.812Z,2.35
2023-09-23T13:15:46.717Z,2.35
2023-09-23T13:18:13.797Z,2.42
2023-09-23T13:20:40.881Z,3.00
2023-09-23T13:23:07.836Z,2.60
2023-09-23T13:25:34.793Z,2.85
2023-09-23T13:28:01.738Z,2.67
2023-09-23T13:30:29.267Z,2.72
2023-09-23T13:32:56.353Z,2.70
2023-09-23T13:35:23.217Z,2.60
2023-09-23T13:37:49.967Z,2.85
2023-09-23T13:40:16.865Z,1.85
2023-09-23T13:42:43.735Z,2.75
2023-09-23T13:45:10.730Z,3.10
2023-09-23T13:47:38.941Z,2.55
2023-09-23T13:50:10.084Z,2.47
2023-09-23T13:52:37.063Z,2.20
2023-09-23T13:55:06.086Z,1.95
2023-09-23T13:57:33.736Z,2.22
2023-09-23T14:00:00.483Z,2.85
2023-09-23T14:02:27.422Z,2.78
2023-09-23T14:04:54.178Z,2.80
2023-09-23T14:07:20.953Z,2.28
2023-09-23T14:09:47.683Z,3.03
2023-09-23T14:12:14.462Z,2.35
2023-09-23T14:14:41.989Z,2.92
2023-09-23T14:17:09.745Z,3.42
2023-09-23T14:19:36.524Z,2.70
2023-09-23T14:22:03.295Z,3.03
2023-09-23T14:24:30.552Z,2.85
2023-09-23T14:26:57.419Z,3.13
2023-09-23T14:29:25.142Z,3.28
2023-09-23T14:31:51.988Z,2.83
2023-09-23T14:34:18.813Z,3.67
2023-09-23T14:36:45.622Z,2.90
2023-09-23T14:39:12.428Z,3.53
2023-09-23T14:41:40.438Z,3.10
2023-09-23T14:44:07.316Z,3.40
2023-09-23T14:46:34.120Z,2.80
2023-09-23T14:49:00.872Z,3.17
2023-09-23T14:51:27.872Z,2.38
2023-09-23T14:53:54.589Z,2.42
2023-09-23T14:56:22.921Z,2.58
2023-09-23T14:58:50.774Z,2.58
2023-09-23T15:01:17.607Z,2.33
2023-09-23T15:03:45.363Z,2.50
2023-09-23T15:06:12.346Z,2.30
2023-09-23T15:08:53.640Z,2.80
2023-09-23T15:11:25.843Z,2.38
2023-09-23T15:13:52.610Z,2.30
2023-09-23T15:16:19.368Z,2.22
2023-09-23T15:18:46.475Z,1.70
2023-09-23T15:21:13.864Z,2.08
2023-09-23T15:23:40.668Z,2.42
2023-09-23T15:26:07.617Z,1.88
2023-09-23T15:28:34.463Z,2.20
2023-09-23T15:31:01.914Z,2.08
2023-09-23T15:33:28.856Z,1.70
2023-09-23T15:35:55.754Z,1.90
2023-09-23T15:38:23.055Z,1.88
2023-09-23T15:40:50.150Z,2.25
2023-09-23T15:43:17.860Z,2.10
2023-09-23T15:45:45.577Z,2.15
2023-09-23T15:48:12.570Z,2.50
2023-09-23T15:50:39.679Z,1.83
2023-09-23T15:53:07.505Z,1.90
2023-09-23T15:55:36.151Z,1.88
2023-09-23T15:58:03.214Z,1.73
2023-09-23T16:00:30.869Z,1.77
2023-09-23T16:03:01.036Z,2.10
2023-09-23T16:05:29.379Z,2.45
2023-09-23T16:07:56.617Z,1.83
2023-09-23T16:10:23.382Z,2.17
2023-09-23T16:12:50.176Z,1.92
2023-09-23T16:15:16.956Z,1.92
2023-09-23T16:17:43.898Z,2.13
2023-09-23T16:20:10.853Z,2.72
2023-09-23T16:22:37.694Z,3.47
2023-09-23T16:25:04.857Z,2.08
2023-09-23T16:27:31.660Z,2.25
2023-09-23T16:29:58.427Z,2.20
2023-09-23T16:32:25.752Z,2.10
2023-09-23T16:34:53.032Z,2.28
2023-09-23T16:37:19.910Z,2.20
2023-09-23T16:39:46.789Z,2.10
2023-09-23T16:42:13.592Z,2.47
2023-09-23T16:44:42.668Z,2.30
2023-09-23T16:47:09.498Z,2.63
2023-09-23T16:49:36.398Z,1.75
2023-09-23T16:52:04.165Z,2.10
2023-09-23T16:54:30.942Z,2.22
2023-09-23T16:56:58.038Z,2.40
2023-09-23T16:59:25.123Z,3.00
2023-09-23T17:01:51.943Z,2.13
2023-09-23T17:04:18.726Z,2.67
2023-09-23T17:06:45.502Z,2.53
2023-09-23T17:09:12.312Z,3.22
2023-09-23T17:11:39.238Z,3.45
2023-09-23T17:14:06.774Z,3.92
2023-09-23T17:16:35.083Z,3.50
2023-09-23T17:19:03.590Z,2.88
2023-09-23T17:21:30.377Z,2.40
2023-09-23T17:23:57.413Z,2.40
2023-09-23T17:26:24.499Z,2.60
2023-09-23T17:28:51.315Z,2.67
2023-09-23T17:31:18.081Z,2.85
2023-09-23T17:33:44.920Z,2.03
2023-09-23T17:36:11.732Z,2.80
2023-09-23T17:38:38.574Z,2.47
2023-09-23T17:41:05.489Z,2.25
2023-09-23T17:43:32.392Z,2.97
2023-09-23T17:46:03.311Z,2.97
2023-09-23T17:48:30.677Z,2.55
2023-09-23T17:50:58.330Z,2.20
2023-09-23T17:53:25.244Z,2.03
2023-09-23T17:55:52.596Z,2.45
2023-09-23T17:58:19.553Z,2.78
2023-09-23T18:00:47.058Z,2.40
2023-09-23T18:03:14.112Z,2.50
2023-09-23T18:05:41.320Z,2.20
2023-09-23T18:08:08.392Z,2.38
2023-09-23T18:10:36.180Z,2.10
2023-09-23T18:13:03.007Z,2.33
2023-09-23T18:15:30.541Z,2.00
2023-09-23T18:17:57.475Z,1.55
2023-09-23T18:20:25.663Z,2.03
2023-09-23T18:22:53.668Z,2.10
2023-09-23T18:25:21.000Z,2.33
2023-09-23T18:27:47.760Z,1.50
2023-09-23T18:30:14.874Z,1.58
2023-09-23T18:32:44.874Z,1.98
2023-09-23T18:35:12.445Z,2.00
2023-09-23T18:37:39.321Z,2.25
2023-09-23T18:40:07.066Z,1.48
2023-09-23T18:42:33.819Z,2.03
2023-09-23T18:45:00.669Z,2.53
2023-09-23T18:47:27.690Z,2.13
2023-09-23T18:49:54.554Z,1.75
2023-09-23T18:52:21.321Z,2.88
2023-09-23T18:54:48.206Z,2.08
2023-09-23T18:57:15.195Z,1.98
2023-09-23T18:59:42.196Z,1.88
2023-09-23T19:02:10.480Z,1.20
2023-09-23T19:04:37.448Z,2.45
2023-09-23T19:07:04.512Z,1.90
2023-09-23T19:09:35.158Z,1.40
2023-09-23T19:12:01.933Z,2.08
2023-09-23T19:14:28.723Z,1.65
2023-09-23T19:16:55.707Z,1.40
2023-09-23T19:19:24.210Z,1.38
2023-09-23T19:21:51.140Z,1.75
2023-09-23T19:24:17.882Z,1.85
2023-09-23T19:26:55.558Z,2.17
2023-09-23T19:29:24.638Z,1.42
2023-09-23T19:31:51.713Z,1.67
2023-09-23T19:34:18.648Z,1.20
2023-09-23T19:36:45.664Z,1.65
2023-09-23T19:39:15.619Z,1.15
2023-09-23T19:41:42.611Z,2.22
2023-09-23T19:44:09.738Z,1.08
2023-09-23T19:46:36.617Z,0.98
2023-09-23T19:49:03.434Z,1.27
2023-09-23T19:51:32.259Z,0.90
2023-09-23T19:53:59.519Z,2.13
2023-09-23T19:56:26.650Z,0.88
2023-09-23T19:58:53.440Z,1.25
2023-09-23T20:01:21.389Z,1.55
2023-09-23T20:03:50.470Z,1.42
2023-09-23T20:06:18.403Z,1.63
2023-09-23T20:08:45.426Z,1.00
2023-09-23T20:11:12.241Z,1.70
2023-09-23T20:13:39.070Z,1.08
2023-09-23T20:16:05.794Z,1.00
2023-09-23T20:18:32.592Z,2.00
2023-09-23T20:20:59.733Z,1.55
2023-09-23T20:23:28.108Z,1.40
2023-09-23T20:25:55.678Z,1.20
2023-09-23T20:28:22.564Z,1.48
2023-09-23T20:30:49.868Z,1.85
2023-09-23T20:33:19.052Z,1.20
2023-09-23T20:35:46.561Z,1.27
2023-09-23T20:38:14.358Z,1.65
2023-09-23T20:40:43.240Z,0.88
2023-09-23T20:43:10.939Z,1.20
2023-09-23T20:45:42.034Z,1.65
2023-09-23T20:48:10.200Z,1.33
2023-09-23T20:50:39.476Z,1.25
2023-09-23T20:53:09.833Z,1.48
2023-09-23T20:55:36.719Z,1.35
2023-09-23T20:58:07.348Z,1.58
2023-09-23T21:00:36.353Z,1.48
2023-09-23T21:03:09.351Z,1.77
2023-09-23T21:05:36.855Z,1.75
2023-09-23T21:08:03.840Z,1.75
2023-09-23T21:10:30.801Z,1.50
2023-09-23T21:12:57.774Z,1.88
2023-09-23T21:15:24.587Z,2.30
2023-09-23T21:17:51.719Z,1.50
2023-09-23T21:20:18.745Z,1.83
2023-09-23T21:22:46.169Z,1.73
2023-09-23T21:25:13.152Z,1.50
2023-09-23T21:27:40.446Z,1.55
2023-09-23T21:30:07.803Z,1.77
2023-09-23T21:32:35.123Z,2.40
2023-09-23T21:35:04.179Z,1.92
2023-09-23T21:37:31.008Z,1.63
2023-09-23T21:39:57.761Z,2.83
2023-09-23T21:42:32.324Z,1.80
2023-09-23T21:45:02.446Z,1.48
2023-09-23T21:47:29.340Z,1.77
2023-09-23T21:49:56.129Z,2.28
2023-09-23T21:52:22.892Z,2.25
2023-09-23T21:54:49.827Z,2.15
2023-09-23T21:57:16.772Z,1.20
2023-09-23T21:59:44.306Z,2.38
2023-09-23T22:02:11.175Z,1.73
2023-09-23T22:04:38.756Z,1.58
2023-09-23T22:07:06.187Z,1.77
2023-09-23T22:09:33.396Z,1.90
2023-09-23T22:12:00.162Z,1.88
2023-09-23T22:14:28.073Z,2.35
2023-09-23T22:16:55.926Z,2.38
2023-09-23T22:19:23.947Z,2.20
2023-09-23T22:21:52.640Z,1.88
2023-09-23T22:24:23.006Z,1.92
2023-09-23T22:26:54.218Z,2.25
2023-09-23T22:29:22.021Z,2.40
2023-09-23T22:31:48.808Z,2.35
2023-09-23T22:34:15.658Z,2.63
2023-09-23T22:36:42.864Z,2.50
2023-09-23T22:39:13.490Z,2.55
2023-09-23T22:41:40.690Z,1.88
2023-09-23T22:44:08.186Z,2.45
2023-09-23T22:46:36.658Z,1.50
2023-09-23T22:49:04.022Z,1.92
2023-09-23T22:51:31.897Z,2.22
2023-09-23T22:53:58.739Z,1.77
2023-09-23T22:56:26.353Z,1.95
2023-09-23T22:58:53.212Z,2.28
2023-09-23T23:01:20.545Z,2.58
2023-09-23T23:03:47.568Z,2.00
2023-09-23T23:06:14.700Z,1.92
2023-09-23T23:08:42.787Z,1.77
2023-09-23T23:11:10.660Z,1.95
2023-09-23T23:13:39.212Z,2.63
2023-09-23T23:16:10.751Z,1.70
2023-09-23T23:18:38.954Z,2.22
2023-09-23T23:21:05.933Z,2.78
2023-09-23T23:23:32.793Z,2.00
2023-09-23T23:26:02.891Z,2.45
2023-09-23T23:28:29.630Z,1.65
2023-09-23T23:30:58.971Z,1.50
2023-09-23T23:33:26.368Z,1.73
2023-09-23T23:36:00.275Z,1.52
2023-09-23T23:38:29.698Z,1.67
2023-09-23T23:40:56.827Z,1.65
2023-09-23T23:43:26.531Z,2.45
2023-09-23T23:46:03.897Z,1.77
2023-09-23T23:48:32.987Z,1.90
2023-09-23T23:51:04.855Z,2.67
2023-09-23T23:53:33.655Z,2.30
2023-09-23T23:56:01.642Z,2.28
2023-09-23T23:58:28.443Z,2.47
